Time;durP1;ratioP1;P1;durP2;ratioP2;P2;SDS_P1;SDS_P2;PMS_P1;PMS_P2;Temp;Humidity;BMP_temperature;BMP_pressure;BME280_temperature;BME280_humidity;BME280_pressure;Samples;Min_cycle;Max_cycle;Signal;HPM_P1;HPM_P2
2021/12/04 00:00:11;;;;;;;34.63;17.13;;;2.80;99.90;;;;;;4923652;29;20048;-93
2021/12/04 00:02:36;;;;;;;32.40;16.73;;;3.70;99.90;;;;;;4921773;29;20067;-93
2021/12/04 00:05:05;;;;;;;32.80;17.17;;;4.70;99.90;;;;;;4904715;29;20504;-94
2021/12/04 00:07:32;;;;;;;34.70;17.40;;;3.70;99.90;;;;;;4920774;29;20040;-96
2021/12/04 00:10:01;;;;;;;35.70;17.37;;;4.00;99.90;;;;;;4921241;29;20048;-93
2021/12/04 00:12:30;;;;;;;35.13;18.23;;;3.60;99.90;;;;;;4922595;29;20048;-93
2021/12/04 00:15:02;;;;;;;34.90;18.07;;;4.10;99.90;;;;;;4920847;29;20103;-94
2021/12/04 00:17:28;;;;;;;38.63;19.07;;;4.40;99.90;;;;;;4920151;29;20092;-93
2021/12/04 00:19:54;;;;;;;38.77;18.77;;;3.60;99.90;;;;;;4920570;29;20048;-94
2021/12/04 00:22:20;;;;;;;57.80;26.20;;;3.70;99.90;;;;;;4920139;29;20052;-93
2021/12/04 00:24:46;;;;;;;41.40;20.13;;;4.20;99.90;;;;;;4920231;29;20508;-94
2021/12/04 00:27:12;;;;;;;35.87;18.50;;;4.10;99.90;;;;;;4921587;29;20485;-94
2021/12/04 00:29:38;;;;;;;40.07;19.37;;;3.50;99.90;;;;;;4920264;29;20075;-94
2021/12/04 00:32:11;;;;;;;40.67;20.97;;;4.50;99.90;;;;;;4920505;29;20056;-94
2021/12/04 00:34:41;;;;;;;35.03;18.13;;;3.70;99.90;;;;;;4920185;29;20048;-94
2021/12/04 00:50:48;;;;;;;41.00;19.30;;;3.40;99.90;;;;;;4920346;29;19930;-93
2021/12/04 00:53:14;;;;;;;35.63;17.47;;;3.60;99.90;;;;;;4939933;29;20043;-93
2021/12/04 00:55:43;;;;;;;32.00;17.23;;;3.60;99.90;;;;;;4924422;29;20040;-93
2021/12/04 00:58:08;;;;;;;31.93;17.37;;;3.60;99.90;;;;;;4922153;29;20497;-94
2021/12/04 01:00:40;;;;;;;30.83;16.63;;;4.70;99.90;;;;;;4929130;29;20032;-94
2021/12/04 01:03:07;;;;;;;30.50;16.33;;;4.70;99.90;;;;;;4943630;29;20027;-94
2021/12/04 01:05:39;;;;;;;30.70;16.30;;;4.10;99.90;;;;;;4923640;29;20110;-94
2021/12/04 01:08:05;;;;;;;31.40;16.17;;;3.50;99.90;;;;;;4923621;29;20052;-93
2021/12/04 01:10:31;;;;;;;29.00;16.17;;;3.50;99.90;;;;;;4923931;29;20055;-94
2021/12/04 01:13:00;;;;;;;28.47;15.67;;;3.50;99.90;;;;;;4924071;29;20047;-94
2021/12/04 01:15:27;;;;;;;29.93;16.97;;;3.30;99.90;;;;;;4923076;29;20055;-94
2021/12/04 01:17:53;;;;;;;27.50;15.63;;;4.30;99.90;;;;;;4922304;29;20076;-94
2021/12/04 01:20:19;;;;;;;27.10;15.77;;;4.30;99.90;;;;;;4923615;29;20056;-95
2021/12/04 01:22:45;;;;;;;28.70;18.50;;;4.60;99.90;;;;;;4924126;29;20048;-95
2021/12/04 01:25:11;;;;;;;26.93;17.07;;;4.00;99.90;;;;;;4939960;29;20071;-95
2021/12/04 01:27:37;;;;;;;24.67;14.27;;;3.50;99.90;;;;;;4943699;29;20024;-93
2021/12/04 01:30:05;;;;;;;24.63;14.73;;;3.50;99.90;;;;;;4944137;29;20020;-94
2021/12/04 01:32:31;;;;;;;25.83;14.73;;;3.70;99.90;;;;;;4928380;29;20488;-94
2021/12/04 01:34:57;;;;;;;24.57;14.67;;;3.70;99.90;;;;;;4923787;29;20055;-94
2021/12/04 01:37:28;;;;;;;25.20;14.53;;;4.40;99.90;;;;;;4923971;29;20052;-95
2021/12/04 01:39:57;;;;;;;23.00;13.00;;;3.60;99.90;;;;;;4923066;29;20091;-95
2021/12/04 01:42:23;;;;;;;22.97;13.10;;;3.50;99.90;;;;;;4922482;29;20048;-95
2021/12/04 01:44:49;;;;;;;25.37;15.53;;;4.20;99.90;;;;;;4922049;29;20060;-94
2021/12/04 01:47:19;;;;;;;21.40;12.00;;;4.40;99.90;;;;;;4922316;29;20136;-95
2021/12/04 01:49:45;;;;;;;22.07;12.63;;;3.50;99.90;;;;;;4921686;29;20099;-95
2021/12/04 01:52:10;;;;;;;23.93;12.53;;;4.20;99.90;;;;;;4923576;29;20088;-94
2021/12/04 01:54:36;;;;;;;22.00;12.67;;;3.60;99.90;;;;;;4923089;29;20064;-94
2021/12/04 01:57:05;;;;;;;22.00;12.33;;;3.40;99.90;;;;;;4924296;29;20055;-94
2021/12/04 01:59:31;;;;;;;20.40;11.30;;;3.60;99.90;;;;;;4922327;29;20139;-95
2021/12/04 02:02:11;;;;;;;20.07;11.93;;;3.40;99.90;;;;;;4921263;29;20131;-94
2021/12/04 02:04:46;;;;;;;19.97;11.57;;;4.40;99.90;;;;;;4921835;29;20071;-94
2021/12/04 02:07:16;;;;;;;18.60;10.77;;;4.80;99.90;;;;;;4920184;29;20055;-94
2021/12/04 02:09:42;;;;;;;18.43;10.87;;;4.10;99.90;;;;;;4921716;29;20127;-94
2021/12/04 02:12:08;;;;;;;18.67;11.33;;;3.50;99.90;;;;;;4923322;29;20112;-95
2021/12/04 02:14:36;;;;;;;17.40;10.60;;;4.60;99.90;;;;;;4922778;29;20048;-95
2021/12/04 02:17:03;;;;;;;17.93;10.73;;;3.90;99.90;;;;;;4922385;29;20044;-94
2021/12/04 02:19:29;;;;;;;17.33;10.50;;;3.70;99.90;;;;;;4921422;29;20497;-94
2021/12/04 02:21:55;;;;;;;19.93;11.00;;;4.20;99.90;;;;;;4919752;29;20048;-94
2021/12/04 02:24:21;;;;;;;20.33;11.53;;;3.40;99.90;;;;;;4920631;29;20450;-95
2021/12/04 02:26:53;;;;;;;20.13;11.63;;;4.60;99.90;;;;;;4921258;29;20473;-94
2021/12/04 02:29:19;;;;;;;20.40;12.37;;;4.10;99.90;;;;;;4921525;29;20055;-94
2021/12/04 02:31:49;;;;;;;19.60;11.10;;;4.70;99.90;;;;;;4923366;29;20044;-95
2021/12/04 02:34:27;;;;;;;20.33;12.02;;;3.60;99.90;;;;;;4922534;29;20048;-93
2021/12/04 02:36:55;;;;;;;19.10;11.47;;;3.40;99.90;;;;;;4923044;29;20107;-93
2021/12/04 02:39:27;;;;;;;19.57;11.40;;;3.40;99.90;;;;;;4921628;29;20051;-95
2021/12/04 02:41:54;;;;;;;18.10;11.33;;;3.80;99.90;;;;;;4920841;29;20044;-94
2021/12/04 02:44:20;;;;;;;18.07;11.17;;;3.80;99.90;;;;;;4920984;29;20052;-94
2021/12/04 02:46:45;;;;;;;17.90;10.43;;;2.70;99.90;;;;;;4922537;29;20082;-95
2021/12/04 02:49:14;;;;;;;19.03;10.97;;;3.00;99.90;;;;;;4942262;29;20028;-94
2021/12/04 02:51:40;;;;;;;18.13;10.73;;;3.40;99.90;;;;;;4928311;29;20446;-95
2021/12/04 02:54:11;;;;;;;18.07;10.90;;;3.60;99.90;;;;;;4922244;29;20055;-93
2021/12/04 02:56:37;;;;;;;18.37;10.67;;;4.10;99.90;;;;;;4926906;29;20036;-94
2021/12/04 02:59:04;;;;;;;18.30;11.37;;;4.60;99.90;;;;;;4941870;29;20027;-94
2021/12/04 03:01:30;;;;;;;17.50;10.50;;;3.50;99.90;;;;;;4922465;29;20040;-93
2021/12/04 03:04:10;;;;;;;16.87;9.83;;;3.50;99.90;;;;;;4921889;29;20040;-94
2021/12/04 03:06:43;;;;;;;18.03;10.73;;;3.70;99.90;;;;;;4920577;29;20040;-94
2021/12/04 03:09:09;;;;;;;18.40;10.10;;;3.50;99.90;;;;;;4919945;29;20493;-95
2021/12/04 03:11:35;;;;;;;16.90;10.47;;;3.50;99.90;;;;;;4920342;29;20115;-94
2021/12/04 03:14:01;;;;;;;15.90;9.80;;;3.30;99.90;;;;;;4921528;29;20084;-95
2021/12/04 03:16:27;;;;;;;15.50;9.17;;;3.40;99.90;;;;;;4921323;29;20138;-94
2021/12/04 03:18:53;;;;;;;16.30;9.57;;;4.30;99.90;;;;;;4919605;29;20103;-94
2021/12/04 03:21:19;;;;;;;15.63;9.37;;;3.50;99.90;;;;;;4918974;29;20393;-95
2021/12/04 03:24:00;;;;;;;15.53;9.23;;;3.90;99.90;;;;;;4920264;29;20083;-94
2021/12/04 03:26:25;;;;;;;15.93;9.67;;;3.40;99.90;;;;;;4920670;29;20050;-96
2021/12/04 03:28:55;;;;;;;15.70;9.40;;;3.40;99.90;;;;;;4921338;29;20044;-94
2021/12/04 03:31:42;;;;;;;16.03;9.20;;;4.10;99.90;;;;;;4920998;29;20758;-94
2021/12/04 03:40:02;;;;;;;15.73;9.17;;;3.60;99.90;;;;;;4921271;29;19974;-95
2021/12/04 03:42:28;;;;;;;16.83;9.30;;;3.40;99.90;;;;;;4919615;29;20491;-95
2021/12/04 03:44:54;;;;;;;14.70;8.50;;;4.10;99.90;;;;;;4921931;29;20056;-94
2021/12/04 03:47:20;;;;;;;17.47;9.30;;;4.40;99.90;;;;;;4921105;29;20047;-94
2021/12/04 03:49:53;;;;;;;17.07;9.47;;;3.40;99.90;;;;;;4919277;29;20044;-94
2021/12/04 03:52:19;;;;;;;17.70;9.85;;;4.30;99.90;;;;;;4920698;29;20046;-95
2021/12/04 03:54:44;;;;;;;15.53;9.33;;;3.30;99.90;;;;;;4918527;29;20135;-95
2021/12/04 03:57:12;;;;;;;17.27;10.07;;;4.60;99.90;;;;;;4919154;29;20075;-95
2021/12/04 03:59:44;;;;;;;16.13;9.50;;;4.00;99.90;;;;;;4919777;29;20056;-94
2021/12/04 04:02:11;;;;;;;16.60;9.50;;;3.30;99.90;;;;;;4919932;29;20044;-94
2021/12/04 04:04:37;;;;;;;18.40;9.40;;;3.40;99.90;;;;;;4920796;29;20086;-95
2021/12/04 04:07:03;;;;;;;17.03;9.87;;;3.90;99.90;;;;;;4919874;29;20048;-96
2021/12/04 04:09:28;;;;;;;18.03;9.67;;;3.60;99.90;;;;;;4919533;29;20058;-95
2021/12/04 04:11:55;;;;;;;17.63;10.47;;;3.40;99.90;;;;;;4919651;29;20043;-95
2021/12/04 04:14:22;;;;;;;17.20;10.50;;;3.40;99.90;;;;;;4919227;29;20103;-94
2021/12/04 04:16:49;;;;;;;19.17;10.37;;;4.20;99.90;;;;;;4919164;29;20054;-95
2021/12/04 04:19:14;;;;;;;18.33;9.87;;;3.30;99.90;;;;;;4919215;29;20052;-95
2021/12/04 04:21:41;;;;;;;17.97;10.47;;;3.70;99.90;;;;;;4919816;29;20051;-94
2021/12/04 04:24:14;;;;;;;17.77;10.20;;;3.80;99.90;;;;;;4919014;29;20091;-95
2021/12/04 04:26:41;;;;;;;20.33;10.33;;;4.50;99.90;;;;;;4919386;29;20079;-95
2021/12/04 04:29:08;;;;;;;16.50;9.83;;;3.30;99.90;;;;;;4922192;29;20130;-94
2021/12/04 04:31:36;;;;;;;17.20;9.80;;;3.80;99.90;;;;;;4933652;29;20048;-93
2021/12/04 04:34:08;;;;;;;19.37;10.13;;;3.40;99.90;;;;;;4940303;29;20095;-94
2021/12/04 04:39:28;;;;;;;17.47;9.53;;;3.50;99.90;;;;;;4926105;29;20052;-95
2021/12/04 04:59:13;;;;;;;;;;;3.40;99.90;;;;;;4920984;29;20049;-94
2021/12/04 05:14:27;;;;;;;17.57;9.70;;;3.40;99.90;;;;;;4918792;29;19923;-95
2021/12/04 05:16:59;;;;;;;17.20;9.83;;;3.40;99.90;;;;;;4918902;29;20048;-95
2021/12/04 05:19:28;;;;;;;16.97;9.70;;;3.40;99.90;;;;;;4918958;29;20510;-94
2021/12/04 05:21:54;;;;;;;18.00;9.93;;;3.90;99.90;;;;;;4919557;29;20476;-95
2021/12/04 05:24:21;;;;;;;18.07;10.30;;;3.40;99.90;;;;;;4919952;29;20119;-95
2021/12/04 05:26:47;;;;;;;17.93;10.00;;;3.60;99.90;;;;;;4919332;29;20051;-94
2021/12/04 05:29:13;;;;;;;17.87;10.00;;;4.80;99.90;;;;;;4919512;29;20048;-94
2021/12/04 05:31:38;;;;;;;17.63;10.13;;;3.50;99.90;;;;;;4920570;29;20044;-95
2021/12/04 05:34:05;;;;;;;18.23;10.70;;;3.40;99.90;;;;;;4920351;29;20044;-95
2021/12/04 05:36:31;;;;;;;18.33;10.63;;;3.20;99.90;;;;;;4906079;29;20047;-94
2021/12/04 05:38:57;;;;;;;19.17;10.50;;;5.10;99.90;;;;;;4920232;29;20146;-94
2021/12/04 05:41:24;;;;;;;18.73;10.67;;;4.70;99.90;;;;;;4919093;29;20047;-94
2021/12/04 05:43:50;;;;;;;18.77;10.17;;;4.00;99.90;;;;;;4922172;29;20249;-95
2021/12/04 05:46:23;;;;;;;18.53;10.47;;;3.50;99.90;;;;;;4922851;29;20118;-95
2021/12/04 05:48:56;;;;;;;20.15;11.43;;;3.40;99.90;;;;;;4922369;29;20056;-95
2021/12/04 05:54:18;;;;;;;21.87;11.40;;;3.50;99.90;;;;;;4924225;29;20147;-95
2021/12/04 05:56:44;;;;;;;23.17;12.43;;;3.30;99.90;;;;;;4922621;29;20123;-95
2021/12/04 05:59:09;;;;;;;21.90;12.57;;;3.50;99.90;;;;;;4923473;29;20412;-95
2021/12/04 06:01:35;;;;;;;22.77;12.57;;;3.60;99.90;;;;;;4923295;29;20091;-95
2021/12/04 06:04:01;;;;;;;25.20;13.50;;;3.50;99.90;;;;;;4923954;29;20056;-95
2021/12/04 06:06:26;;;;;;;25.50;13.23;;;4.40;99.90;;;;;;4923340;29;20080;-95
2021/12/04 06:08:53;;;;;;;25.73;13.27;;;3.40;99.90;;;;;;4906031;29;20047;-96
2021/12/04 06:11:19;;;;;;;26.17;13.57;;;4.00;99.90;;;;;;4922745;29;20054;-96
2021/12/04 06:13:45;;;;;;;26.23;13.67;;;3.40;99.90;;;;;;4922961;29;20092;-96
2021/12/04 06:16:10;;;;;;;27.40;13.20;;;3.40;99.90;;;;;;4906386;29;20087;-95
2021/12/04 06:18:36;;;;;;;26.63;13.63;;;4.70;99.90;;;;;;4922616;29;20142;-96
2021/12/04 06:23:49;;;;;;;26.30;13.53;;;3.70;99.90;;;;;;4922004;29;20134;-92
2021/12/04 06:26:15;;;;;;;27.70;13.53;;;4.10;99.90;;;;;;4922098;29;20052;-94
2021/12/04 06:28:41;;;;;;;31.47;14.40;;;3.40;99.90;;;;;;4923648;29;20044;-93
2021/12/04 06:31:08;;;;;;;30.30;14.47;;;3.30;99.90;;;;;;4924211;29;20059;-94
2021/12/04 06:33:34;;;;;;;30.87;14.30;;;3.40;99.90;;;;;;4924872;29;20048;-94
2021/12/04 06:36:00;;;;;;;30.30;15.07;;;3.70;99.90;;;;;;4922817;29;20040;-95
2021/12/04 06:38:26;;;;;;;30.77;14.53;;;4.40;99.90;;;;;;4923212;29;20048;-94
2021/12/04 06:40:54;;;;;;;31.80;14.53;;;3.40;99.90;;;;;;4927068;29;20052;-94
2021/12/04 06:43:20;;;;;;;36.67;15.53;;;3.60;99.90;;;;;;4938269;29;20485;-95
2021/12/04 06:45:56;;;;;;;30.10;14.17;;;3.70;99.90;;;;;;4924443;29;20111;-94
2021/12/04 06:48:25;;;;;;;32.83;13.53;;;3.30;99.90;;;;;;4925129;29;20564;-95
2021/12/04 06:50:59;;;;;;;34.17;14.37;;;4.40;99.90;;;;;;4937932;29;20096;-95
2021/12/04 06:53:38;;;;;;;37.43;14.73;;;4.40;99.90;;;;;;4931706;29;20060;-94
2021/12/04 06:56:07;;;;;;;32.80;14.33;;;3.40;99.90;;;;;;4923478;29;20052;-94
2021/12/04 06:58:33;;;;;;;38.47;15.17;;;3.60;99.90;;;;;;4917365;29;20068;-94
2021/12/04 07:00:59;;;;;;;35.23;14.67;;;3.40;99.90;;;;;;4925808;29;20055;-95
2021/12/04 07:03:25;;;;;;;36.17;14.47;;;3.60;99.90;;;;;;4924455;29;20040;-93
2021/12/04 07:05:50;;;;;;;39.47;15.03;;;3.30;99.90;;;;;;4923052;29;20406;-94
2021/12/04 07:08:16;;;;;;;33.63;14.50;;;3.60;99.90;;;;;;4924585;29;20044;-94
2021/12/04 07:10:42;;;;;;;31.90;13.67;;;3.60;99.90;;;;;;4922600;29;20552;-94
2021/12/04 07:13:09;;;;;;;32.67;14.10;;;5.00;99.90;;;;;;4921780;29;20034;-95
2021/12/04 07:15:43;;;;;;;37.10;14.97;;;3.90;99.90;;;;;;4922572;29;20048;-94
2021/12/04 07:18:09;;;;;;;37.77;14.63;;;3.50;99.90;;;;;;4911064;29;20489;-94
2021/12/04 07:20:36;;;;;;;32.33;14.53;;;4.50;99.90;;;;;;4887737;29;20067;-95
2021/12/04 07:23:02;;;;;;;37.80;15.47;;;3.20;99.90;;;;;;4886887;29;20044;-90
2021/12/04 07:25:28;;;;;;;34.33;14.70;;;4.00;99.90;;;;;;4889045;29;20048;-93
2021/12/04 07:27:54;;;;;;;43.30;16.33;;;4.90;99.90;;;;;;4885285;29;20052;-89
2021/12/04 07:30:25;;;;;;;35.63;15.03;;;3.40;99.90;;;;;;4883638;29;20447;-88
2021/12/04 07:32:57;;;;;;;44.73;16.20;;;4.20;99.90;;;;;;4883392;29;20070;-89
2021/12/04 07:35:22;;;;;;;39.73;15.23;;;3.50;99.90;;;;;;4884642;29;20084;-87
2021/12/04 07:37:48;;;;;;;36.47;15.77;;;3.30;99.90;;;;;;4888233;29;20051;-85
2021/12/04 07:40:14;;;;;;;40.90;16.03;;;3.70;99.90;;;;;;4901123;29;20111;-87
2021/12/04 07:42:40;;;;;;;38.33;15.50;;;3.90;99.90;;;;;;4895596;29;20108;-89
2021/12/04 07:45:07;;;;;;;38.27;15.57;;;3.40;99.90;;;;;;4893172;29;20056;-86
2021/12/04 07:47:34;;;;;;;37.90;16.00;;;3.70;99.90;;;;;;4884165;29;20081;-87
2021/12/04 07:50:01;;;;;;;38.33;15.27;;;3.50;99.90;;;;;;4881229;29;20044;-87
2021/12/04 07:52:30;;;;;;;44.33;16.03;;;4.00;99.90;;;;;;4898172;29;20084;-87
2021/12/04 07:54:55;;;;;;;43.63;17.27;;;4.50;99.90;;;;;;4882482;29;20044;-87
2021/12/04 07:57:21;;;;;;;49.77;17.23;;;4.30;99.90;;;;;;4882698;29;20175;-85
2021/12/04 07:59:47;;;;;;;42.63;16.37;;;3.50;99.90;;;;;;4898980;29;20112;-86
2021/12/04 08:02:13;;;;;;;45.40;17.20;;;3.30;99.90;;;;;;4881405;29;20089;-85
2021/12/04 08:04:38;;;;;;;43.23;17.00;;;4.30;99.90;;;;;;4880149;29;20053;-86
2021/12/04 08:07:04;;;;;;;42.83;16.80;;;4.20;99.90;;;;;;4880800;29;20068;-85
2021/12/04 08:09:29;;;;;;;59.03;18.97;;;4.40;99.90;;;;;;4880329;29;20099;-85
2021/12/04 08:11:56;;;;;;;53.57;18.67;;;3.50;99.90;;;;;;4880304;29;20513;-85
2021/12/04 08:14:21;;;;;;;55.80;18.80;;;4.30;99.90;;;;;;4881430;29;20056;-85
2021/12/04 08:16:50;;;;;;;74.13;20.57;;;3.90;99.90;;;;;;4880048;29;20048;-85
2021/12/04 08:19:16;;;;;;;53.50;17.50;;;4.20;99.90;;;;;;4880542;29;20107;-85
2021/12/04 08:21:42;;;;;;;60.97;19.90;;;4.50;99.90;;;;;;4879330;29;20505;-85
2021/12/04 08:24:09;;;;;;;62.53;20.27;;;4.00;99.90;;;;;;4897564;29;20083;-85
2021/12/04 08:26:36;;;;;;;56.87;19.03;;;5.00;99.90;;;;;;4880846;29;20052;-85
2021/12/04 08:29:03;;;;;;;63.30;20.30;;;3.60;99.90;;;;;;4880033;29;20143;-84
2021/12/04 08:31:29;;;;;;;57.03;20.33;;;4.60;99.90;;;;;;4881253;29;20131;-85
2021/12/04 08:33:55;;;;;;;64.73;20.23;;;4.60;99.90;;;;;;4897702;29;20516;-85
2021/12/04 08:36:21;;;;;;;60.87;21.00;;;4.60;99.90;;;;;;4900920;29;20447;-85
2021/12/04 08:38:53;;;;;;;57.03;19.40;;;3.60;99.90;;;;;;4881285;29;20045;-85
2021/12/04 08:41:20;;;;;;;56.10;18.77;;;3.70;99.90;;;;;;4898050;29;20044;-85
2021/12/04 08:43:46;;;;;;;66.43;19.90;;;3.70;99.90;;;;;;4880804;29;20049;-86
2021/12/04 08:46:14;;;;;;;64.87;19.70;;;4.80;99.90;;;;;;4883755;29;20040;-85
2021/12/04 08:48:40;;;;;;;59.17;19.93;;;3.70;99.90;;;;;;4899050;29;20128;-85
2021/12/04 08:51:06;;;;;;;57.57;19.10;;;4.00;99.90;;;;;;4880459;29;20045;-85
2021/12/04 08:53:31;;;;;;;65.57;19.60;;;4.30;99.90;;;;;;4881514;29;20048;-85
2021/12/04 08:55:57;;;;;;;64.70;20.17;;;3.60;99.90;;;;;;4883123;29;20379;-91
2021/12/04 08:58:28;;;;;;;47.50;17.93;;;4.80;99.90;;;;;;4882315;29;20045;-91
2021/12/04 09:01:01;;;;;;;64.50;19.67;;;3.80;99.90;;;;;;4881582;29;20048;-87
2021/12/04 09:03:30;;;;;;;54.55;19.05;;;4.10;99.90;;;;;;4881798;29;20083;-86
2021/12/04 09:05:57;;;;;;;58.00;19.07;;;3.70;99.90;;;;;;4880000;29;20485;-85
2021/12/04 09:08:45;;;;;;;70.43;20.53;;;3.60;99.90;;;;;;4897914;29;20076;-85
2021/12/04 09:11:15;;;;;;;63.10;20.83;;;4.00;99.90;;;;;;4880663;29;20136;-85
2021/12/04 09:13:42;;;;;;;71.80;20.53;;;3.60;99.90;;;;;;4880376;29;20060;-86
2021/12/04 09:16:09;;;;;;;60.63;20.50;;;3.80;99.90;;;;;;4881542;29;20060;-86
2021/12/04 09:19:00;;;;;;;66.43;21.80;;;3.80;99.90;;;;;;4885136;29;20060;-85
2021/12/04 09:21:27;;;;;;;75.03;22.60;;;3.20;99.90;;;;;;4901317;29;20040;-86
2021/12/04 09:35:12;;;;;;;78.37;24.23;;;4.40;99.90;;;;;;4884206;29;20112;-86
2021/12/04 10:00:08;;;;;;;76.07;23.57;;;3.80;99.90;;;;;;4881469;29;20111;-86
2021/12/04 10:02:48;;;;;;;72.30;21.93;;;4.80;99.90;;;;;;4883406;29;20540;-86
2021/12/04 10:33:42;;;;;;;58.27;20.83;;;4.70;99.90;;;;;;4860286;29;20406;-83
2021/12/04 10:36:11;;;;;;;59.03;22.10;;;4.20;99.90;;;;;;4843246;29;20065;-84
2021/12/04 10:38:44;;;;;;;55.03;19.93;;;4.90;99.90;;;;;;4873586;29;20129;-85
2021/12/04 10:41:12;;;;;;;55.58;20.63;;;4.00;99.90;;;;;;4903576;29;20410;-85
2021/12/04 10:43:38;;;;;;;56.23;20.87;;;5.30;99.90;;;;;;4889654;29;20035;-85
2021/12/04 10:46:15;;;;;;;60.27;20.30;;;4.40;99.90;;;;;;4907128;29;20045;-86
2021/12/04 10:48:49;;;;;;;56.00;21.90;;;4.40;99.90;;;;;;4892538;29;20056;-86
2021/12/04 10:54:28;;;;;;;45.87;20.33;;;4.50;99.90;;;;;;4884154;29;20135;-86
2021/12/04 11:00:05;;;;;;;41.80;18.63;;;4.20;99.90;;;;;;4882530;29;20056;-86
2021/12/04 11:03:16;;;;;;;44.43;19.87;;;4.60;99.90;;;;;;4883122;29;20501;-86
2021/12/04 11:06:05;;;;;;;38.37;19.03;;;4.40;99.90;;;;;;4878317;29;20092;-86
2021/12/04 11:37:06;;;;;;;53.07;23.90;;;4.40;99.90;;;;;;4902487;29;20073;-84
2021/12/04 11:42:39;;;;;;;53.27;23.60;;;4.20;99.90;;;;;;4927271;29;20056;-85
2021/12/04 11:45:18;;;;;;;61.23;24.67;;;4.50;99.90;;;;;;4936378;29;20052;-87
2021/12/04 11:47:55;;;;;;;54.07;24.20;;;4.60;99.90;;;;;;4936292;29;20074;-88
2021/12/04 11:50:28;;;;;;;57.50;25.27;;;5.20;99.90;;;;;;4937127;29;20062;-87
2021/12/04 11:52:58;;;;;;;66.13;26.73;;;4.50;99.90;;;;;;4935654;29;20397;-87
2021/12/04 11:55:26;;;;;;;62.67;25.63;;;4.50;99.90;;;;;;4938439;29;20047;-86
2021/12/04 11:58:15;;;;;;;69.03;27.13;;;5.60;99.90;;;;;;4935958;29;20048;-89
2021/12/04 12:00:41;;;;;;;79.67;27.70;;;4.50;99.90;;;;;;4934971;29;20044;-87
2021/12/04 12:03:18;;;;;;;69.50;27.83;;;4.00;99.90;;;;;;4936438;29;20047;-87
2021/12/04 12:05:54;;;;;;;73.27;27.97;;;4.50;99.90;;;;;;4935842;29;20055;-87
2021/12/04 12:08:42;;;;;;;79.87;29.73;;;5.10;99.90;;;;;;4935266;29;20480;-84
2021/12/04 12:11:22;;;;;;;97.60;30.60;;;4.50;99.90;;;;;;4934551;29;20051;-83
2021/12/04 12:14:09;;;;;;;82.63;29.87;;;4.50;99.90;;;;;;4934107;29;20091;-83
2021/12/04 12:16:40;;;;;;;81.43;29.17;;;4.60;99.90;;;;;;4935556;29;20058;-83
2021/12/04 12:19:22;;;;;;;73.77;27.27;;;5.20;99.90;;;;;;4933629;29;20055;-83
2021/12/04 12:21:55;;;;;;;77.47;28.83;;;4.40;99.90;;;;;;4932783;29;20114;-84
2021/12/04 12:33:00;;;;;;;62.80;26.03;;;5.30;99.90;;;;;;4932897;29;20059;-83
2021/12/04 12:38:45;;;;;;;61.73;24.43;;;6.00;99.90;;;;;;4937410;29;20051;-83
2021/12/04 12:41:39;;;;;;;57.80;24.15;;;4.60;99.90;;;;;;4934928;29;20110;-83
2021/12/04 12:44:18;;;;;;;60.53;24.57;;;4.60;99.90;;;;;;4933740;29;20059;-84
2021/12/04 12:46:50;;;;;;;55.63;22.73;;;4.60;99.90;;;;;;4934622;29;20087;-83
2021/12/04 12:49:38;;;;;;;54.10;22.20;;;5.30;99.90;;;;;;4932693;29;20079;-83
2021/12/04 12:52:13;;;;;;;53.73;21.40;;;4.50;99.90;;;;;;4944948;28;20156;-83
2021/12/04 12:54:46;;;;;;;59.30;23.97;;;4.40;99.90;;;;;;4930278;29;20485;-83
2021/12/04 12:57:19;;;;;;;62.73;24.07;;;5.40;99.90;;;;;;4936303;29;20056;-84
2021/12/04 13:14:07;;;;;;;77.73;27.03;;;4.50;99.90;;;;;;4935806;29;20070;-82
2021/12/04 13:16:33;;;;;;;85.20;27.50;;;5.10;99.90;;;;;;4965166;23;20444;-82
2021/12/04 13:19:06;;;;;;;94.03;28.87;;;4.50;99.90;;;;;;4939765;29;20058;-83
2021/12/04 13:21:37;;;;;;;90.23;30.37;;;5.20;99.90;;;;;;4957796;29;20047;-83
2021/12/04 13:24:16;;;;;;;95.25;30.02;;;4.50;99.90;;;;;;4936637;29;20162;-83
2021/12/04 13:26:49;;;;;;;89.97;31.27;;;3.70;99.90;;;;;;4940232;29;20043;-84
2021/12/04 13:31:57;;;;;;;95.73;32.53;;;4.30;99.90;;;;;;4939589;29;20480;-83
2021/12/04 13:34:28;;;;;;;96.00;31.77;;;4.30;99.90;;;;;;4940574;29;20143;-83
2021/12/04 13:36:56;;;;;;;87.47;32.93;;;5.30;99.90;;;;;;4940113;29;20133;-83
2021/12/04 13:39:22;;;;;;;92.60;31.63;;;4.40;99.90;;;;;;4942932;28;20069;-82
2021/12/04 13:42:02;;;;;;;81.00;28.57;;;5.50;99.90;;;;;;4950742;28;20101;-86
2021/12/04 13:44:31;;;;;;;74.43;28.17;;;5.70;99.90;;;;;;4959552;28;20090;-87
2021/12/04 13:47:04;;;;;;;75.00;27.60;;;4.50;99.90;;;;;;4959542;28;20046;-86
2021/12/04 13:49:56;;;;;;;70.63;27.00;;;4.60;99.90;;;;;;4961285;28;20050;-87
2021/12/04 13:52:25;;;;;;;67.87;25.47;;;4.80;99.90;;;;;;4971734;28;20050;-86
2021/12/04 13:55:00;;;;;;;65.40;26.43;;;5.00;99.90;;;;;;4982430;28;20057;-83
2021/12/04 13:57:26;;;;;;;71.03;26.63;;;5.00;99.90;;;;;;4969560;28;20049;-84
2021/12/04 14:00:18;;;;;;;61.70;25.43;;;5.00;99.90;;;;;;4978049;28;20392;-83
2021/12/04 14:02:44;;;;;;;63.47;25.67;;;4.70;99.90;;;;;;4958996;28;20074;-84
2021/12/04 14:05:13;;;;;;;66.53;25.23;;;4.40;99.90;;;;;;4959349;28;20400;-84
2021/12/04 14:07:47;;;;;;;64.17;24.80;;;4.50;99.90;;;;;;4958203;28;20055;-84
2021/12/04 14:10:16;;;;;;;58.37;24.87;;;4.60;99.90;;;;;;4959420;28;20054;-83
2021/12/04 14:12:42;;;;;;;61.13;24.80;;;4.50;99.90;;;;;;4958478;28;20047;-84
2021/12/04 14:15:18;;;;;;;63.07;25.80;;;4.40;99.90;;;;;;4975549;28;20067;-84
2021/12/04 14:17:50;;;;;;;57.83;25.13;;;5.40;99.90;;;;;;4958606;28;20138;-84
2021/12/04 14:20:22;;;;;;;59.47;25.07;;;4.30;99.90;;;;;;4958204;28;20047;-83
2021/12/04 14:22:50;;;;;;;55.20;24.47;;;5.40;99.90;;;;;;4976284;28;20061;-84
2021/12/04 14:25:17;;;;;;;61.33;25.37;;;4.90;99.90;;;;;;4979502;28;20073;-84
2021/12/04 14:27:44;;;;;;;65.57;25.73;;;4.90;99.90;;;;;;4958314;28;20119;-85
2021/12/04 14:30:14;;;;;;;60.90;25.30;;;4.90;99.90;;;;;;4956121;28;20488;-84
2021/12/04 14:32:42;;;;;;;58.97;26.80;;;4.90;99.90;;;;;;4965432;28;20047;-84
2021/12/04 14:35:15;;;;;;;62.67;26.97;;;4.60;99.90;;;;;;4967897;28;20049;-84
2021/12/04 14:37:47;;;;;;;70.67;26.70;;;4.70;99.90;;;;;;4946909;28;20047;-84
2021/12/04 14:40:16;;;;;;;70.63;25.90;;;4.30;99.90;;;;;;4949909;28;20051;-84
2021/12/04 14:42:42;;;;;;;62.63;26.03;;;4.30;99.90;;;;;;4964319;28;20430;-84
2021/12/04 14:45:21;;;;;;;63.43;26.00;;;4.70;99.90;;;;;;4948373;28;20072;-84
2021/12/04 14:47:52;;;;;;;58.13;25.53;;;4.30;99.90;;;;;;4951226;28;20046;-84
2021/12/04 14:50:20;;;;;;;63.30;25.60;;;4.50;99.90;;;;;;4957507;28;20121;-84
2021/12/04 14:52:57;;;;;;;74.17;27.30;;;4.40;99.90;;;;;;4975640;28;20434;-84
2021/12/04 14:55:33;;;;;;;78.70;27.80;;;5.10;99.90;;;;;;4958125;28;20134;-84
2021/12/04 14:58:00;;;;;;;76.83;28.23;;;4.40;99.90;;;;;;4975871;28;20039;-84
2021/12/04 15:00:35;;;;;;;77.07;27.47;;;5.00;99.90;;;;;;4958658;28;20559;-86
2021/12/04 15:03:10;;;;;;;64.33;25.60;;;4.20;99.90;;;;;;4975143;28;20106;-86
2021/12/04 15:05:42;;;;;;;72.23;26.13;;;4.60;99.90;;;;;;4955353;28;20055;-84
2021/12/04 15:08:22;;;;;;;72.63;27.73;;;4.40;99.90;;;;;;4947235;28;20043;-84
2021/12/04 15:11:01;;;;;;;70.23;26.43;;;4.50;99.90;;;;;;4948042;28;20042;-84
2021/12/04 15:16:32;;;;;;;;;;;4.50;99.90;;;;;;5009056;23;20106;-84
2021/12/04 15:19:41;;;;;;;50.17;22.53;;;4.50;99.90;;;;;;4937313;29;19977;-84
2021/12/04 15:22:29;;;;;;;54.53;23.43;;;4.40;99.90;;;;;;4937647;29;20117;-84
2021/12/04 15:24:56;;;;;;;52.20;24.67;;;5.30;99.90;;;;;;4935391;29;20102;-84
2021/12/04 15:27:23;;;;;;;45.53;22.87;;;5.30;99.90;;;;;;4937978;29;20039;-84
2021/12/04 15:29:52;;;;;;;51.73;24.83;;;5.00;99.90;;;;;;4937647;29;20047;-84
2021/12/04 15:32:22;;;;;;;51.30;24.13;;;4.40;99.90;;;;;;4955007;29;20043;-84
2021/12/04 15:35:00;;;;;;;46.60;22.77;;;4.70;99.90;;;;;;4938775;29;20404;-84
2021/12/04 15:40:51;;;;;;;49.80;23.13;;;4.40;99.90;;;;;;4987657;23;20110;-84
2021/12/04 15:43:57;;;;;;;45.43;23.30;;;4.30;99.90;;;;;;4957612;28;20122;-84
2021/12/04 15:47:10;;;;;;;52.77;23.90;;;4.60;99.90;;;;;;4954304;29;20046;-85
2021/12/04 15:49:54;;;;;;;48.70;23.03;;;5.20;99.90;;;;;;4938323;29;20118;-84
2021/12/04 15:52:52;;;;;;;43.23;21.73;;;4.10;99.90;;;;;;4937859;29;20054;-88
2021/12/04 15:55:27;;;;;;;55.92;24.20;;;4.40;99.90;;;;;;4939203;29;20137;-88
2021/12/04 15:57:55;;;;;;;44.90;22.70;;;5.20;99.90;;;;;;4939166;29;20404;-88
2021/12/04 16:00:23;;;;;;;49.40;22.83;;;5.10;99.90;;;;;;4937984;29;20190;-88
2021/12/04 16:02:54;;;;;;;46.17;23.17;;;4.40;99.90;;;;;;4938551;29;20559;-87
2021/12/04 16:05:21;;;;;;;47.40;23.07;;;5.20;99.90;;;;;;4939041;29;20389;-90